»·PEaware :: N212MH M94-S36

N212MH :: M94-S36

FLIGHT INFORMATION

Flight Status: Arrived
Operator: Privately registered:
United States
More flights under this callsign
Pilot: Erik A. (17503)
Aircraft: AERMACCHI WARRIOR
(F260)
More flights by this aircraft type
Origin: M94 Desert Aire
United States
Destination: S36 Norman Grier Field
United States
More flights between these airports :: More routes between these airports
Route:
File this flight plan on PilotEdge
Remarks: Alphabet Challenge Washington Leg #13
Altitude:
(Current/Filed)
4,500ft
Speed:
(Current/Filed)
130kts
Departed: 28-Aug-20 01:31 PM
Arrived: 28-Aug-20 03:57 PM
Distance/Time
Traveled:
98nm/2:26
Distance/Time
To Go:
Arrived

Flight Plot

Page will automatically refresh every two minutes.

Flight plan parsing failed; only flown route is shown


Map Options




Map Legend


Flown Route
Filed Route
Departure Airport
Arrival Airport
Navaid (VOR, NDB)
Fix

Horizontal Profiles

Position Reports

Time Latitude Longitude Heading Altitude Ground
Speed
28-Aug-20 12:53 46.688729 -119.926772 115 549ft 0kts
28-Aug-20 12:54 46.688729 -119.926772 115 549ft 0kts
28-Aug-20 12:55 46.688729 -119.926772 115 549ft 0kts
28-Aug-20 12:56 46.688729 -119.926772 115 549ft 0kts
28-Aug-20 12:57 46.688729 -119.926772 115 549ft 0kts
28-Aug-20 12:58 46.688729 -119.926772 115 549ft 0kts
28-Aug-20 12:59 46.688729 -119.926772 115 549ft 0kts
28-Aug-20 13:00 46.688729 -119.926772 115 549ft 0kts
28-Aug-20 13:01 46.688729 -119.926772 115 549ft 0kts
28-Aug-20 13:02 46.688729 -119.926772 115 549ft 0kts
28-Aug-20 13:03 46.688729 -119.926772 115 549ft 0kts
28-Aug-20 13:04 46.688729 -119.926772 115 549ft 0kts
28-Aug-20 13:05 46.688729 -119.926772 115 549ft 0kts
28-Aug-20 13:06 46.688728 -119.926769 115 549ft 0kts
28-Aug-20 13:07 46.688728 -119.926769 115 549ft 0kts
28-Aug-20 13:08 46.688727 -119.926769 115 549ft 0kts
28-Aug-20 13:09 46.688727 -119.926769 115 549ft 0kts
28-Aug-20 13:10 46.688727 -119.926769 115 549ft 0kts
28-Aug-20 13:11 46.688727 -119.926769 115 549ft 0kts
28-Aug-20 13:12 46.688727 -119.926769 115 549ft 0kts
28-Aug-20 13:13 46.688727 -119.926769 115 549ft 0kts
28-Aug-20 13:14 46.688727 -119.926769 115 549ft 0kts
28-Aug-20 13:15 46.688727 -119.926769 115 549ft 0kts
28-Aug-20 13:16 46.688727 -119.926769 115 549ft 0kts
28-Aug-20 13:17 46.688727 -119.926769 115 549ft 0kts
28-Aug-20 13:18 46.688727 -119.926769 115 549ft 0kts
28-Aug-20 13:19 46.688727 -119.926769 115 549ft 0kts
28-Aug-20 13:20 46.688727 -119.926769 115 549ft 0kts
28-Aug-20 13:21 46.688727 -119.926769 115 549ft 0kts
28-Aug-20 13:22 46.688727 -119.926769 115 549ft 0kts
28-Aug-20 13:23 46.688727 -119.926769 115 549ft 0kts
28-Aug-20 13:24 46.688727 -119.926769 115 549ft 0kts
28-Aug-20 13:25 46.688727 -119.926769 115 549ft 0kts
28-Aug-20 13:26 46.688727 -119.926769 115 549ft 0kts
28-Aug-20 13:27 46.688821 -119.926638 1 549ft 5kts
28-Aug-20 13:28 46.688997 -119.926570 24 549ft 0kts
28-Aug-20 13:29 46.689320 -119.926109 113 550ft 0kts
28-Aug-20 13:30 46.679840 -119.899235 113 1245ft 108kts
28-Aug-20 13:31 46.665398 -119.858618 114 2403ft 120kts
28-Aug-20 13:32 46.655218 -119.809278 106 2804ft 131kts
28-Aug-20 13:33 46.642283 -119.758822 140 3050ft 133kts
28-Aug-20 13:34 46.605353 -119.756601 188 3229ft 134kts
28-Aug-20 13:35 46.575092 -119.784664 231 3361ft 144kts
28-Aug-20 13:36 46.551091 -119.830532 226 3458ft 144kts
28-Aug-20 13:37 46.523165 -119.871536 223 3575ft 142kts
28-Aug-20 13:38 46.495666 -119.912864 225 3670ft 143kts
28-Aug-20 13:39 46.461027 -119.939439 188 3703ft 146kts
28-Aug-20 13:40 46.421213 -119.949469 190 3591ft 145kts
28-Aug-20 13:41 46.381118 -119.961128 183 2811ft 150kts
28-Aug-20 13:42 46.343091 -119.978889 247 2022ft 150kts
28-Aug-20 13:43 46.334690 -120.023842 188 1926ft 93kts
28-Aug-20 13:44 46.327326 -119.995511 90 1167ft 93kts
28-Aug-20 13:45 46.327181 -119.969389 86 770ft 13kts
28-Aug-20 13:46 46.326331 -119.969835 180 770ft 0kts
28-Aug-20 13:47 46.326331 -119.969835 180 770ft 0kts
28-Aug-20 13:48 46.326331 -119.969835 180 770ft 0kts
28-Aug-20 13:49 46.326331 -119.969835 180 770ft 0kts
28-Aug-20 13:50 46.326331 -119.969835 180 770ft 0kts
28-Aug-20 13:51 46.326189 -119.970082 267 770ft 5kts
28-Aug-20 13:52 46.326483 -119.973352 270 770ft 9kts
28-Aug-20 13:53 46.326724 -119.977073 0 770ft 3kts
28-Aug-20 13:54 46.326744 -119.977073 359 770ft 0kts
28-Aug-20 13:55 46.326905 -119.977075 358 770ft 6kts
28-Aug-20 13:56 46.326355 -119.947139 63 1436ft 99kts
28-Aug-20 13:57 46.342192 -119.967132 296 2330ft 127kts
28-Aug-20 13:58 46.348650 -120.019349 252 2370ft 148kts
28-Aug-20 13:59 46.334411 -120.074251 263 2259ft 146kts
28-Aug-20 14:00 46.339849 -120.132725 284 2125ft 144kts
28-Aug-20 14:01 46.356939 -120.184348 315 1863ft 143kts
28-Aug-20 14:03 46.388679 -120.215191 335 1781ft 138kts
28-Aug-20 14:04 46.424630 -120.226900 355 1830ft 127kts
28-Aug-20 14:05 46.450542 -120.252603 291 1712ft 111kts
28-Aug-20 14:06 46.452245 -120.295338 313 1576ft 105kts
28-Aug-20 14:07 46.449218 -120.331658 239 1504ft 101kts
28-Aug-20 14:08 46.437242 -120.310392 124 1554ft 97kts
28-Aug-20 14:09 46.416281 -120.279324 122 1716ft 121kts
28-Aug-20 14:10 46.403132 -120.243591 102 1231ft 94kts
28-Aug-20 14:11 46.396098 -120.243340 163 1212ft 96kts
28-Aug-20 14:12 46.397302 -120.211353 29 1113ft 94kts
28-Aug-20 14:13 46.417117 -120.239936 291 1853ft 127kts
28-Aug-20 14:14 46.428304 -120.293865 296 1608ft 141kts
28-Aug-20 14:15 46.452585 -120.338146 308 1262ft 127kts
28-Aug-20 14:16 46.442954 -120.340187 128 817ft 74kts
28-Aug-20 14:17 46.427805 -120.338507 275 1764ft 107kts
28-Aug-20 14:18 46.433988 -120.385553 270 2360ft 132kts
28-Aug-20 14:18 46.434251 -120.434962 276 2210ft 158kts
28-Aug-20 14:20 46.434031 -120.509133 253 2001ft 152kts
28-Aug-20 14:21 46.417995 -120.561285 264 2001ft 135kts
28-Aug-20 14:21 46.415375 -120.605980 262 1758ft 136kts
28-Aug-20 14:22 46.407742 -120.656522 168 1690ft 119kts
28-Aug-20 14:24 46.414291 -120.634080 266 1639ft 100kts
28-Aug-20 14:24 46.408308 -120.646730 87 1104ft 88kts
28-Aug-20 14:25 46.409066 -120.614260 147 1437ft 88kts
28-Aug-20 14:26 46.399255 -120.650338 270 1785ft 138kts
28-Aug-20 14:27 46.403501 -120.706910 251 1888ft 144kts
28-Aug-20 14:28 46.374343 -120.743741 263 2190ft 124kts
28-Aug-20 14:29 46.402004 -120.753786 24 2560ft 124kts
28-Aug-20 14:30 46.436126 -120.744620 358 2890ft 132kts
28-Aug-20 14:31 46.472044 -120.735419 10 3237ft 131kts
28-Aug-20 14:32 46.508389 -120.722934 13 3330ft 144kts
28-Aug-20 14:33 46.548571 -120.716435 359 3025ft 150kts
28-Aug-20 14:34 46.542824 -120.715102 83 2519ft 130kts
28-Aug-20 14:35 46.540412 -120.737417 250 2574ft 135kts
28-Aug-20 14:36 46.530905 -120.786760 306 2949ft 113kts
28-Aug-20 14:37 46.560737 -120.782164 21 2798ft 137kts
28-Aug-20 14:38 46.562187 -120.794452 90 2355ft 95kts
28-Aug-20 14:39 46.565272 -120.758115 59 2169ft 103kts
28-Aug-20 14:40 46.583918 -120.722789 40 2829ft 123kts
28-Aug-20 14:41 46.603147 -120.690569 53 3693ft 122kts
28-Aug-20 14:42 46.623841 -120.644147 58 3871ft 150kts
28-Aug-20 14:43 46.646923 -120.592627 54 3937ft 149kts
28-Aug-20 14:44 46.677119 -120.549779 57 3932ft 153kts
28-Aug-20 14:45 46.701214 -120.498435 50 3835ft 162kts
28-Aug-20 14:46 46.738480 -120.462733 36 3741ft 159kts
28-Aug-20 14:47 46.773668 -120.428514 350 3386ft 166kts
28-Aug-20 14:48 46.772383 -120.434217 73 2874ft 155kts
28-Aug-20 14:49 46.777885 -120.457152 258 1968ft 173kts
28-Aug-20 14:50 46.765245 -120.510190 220 3318ft 150kts
28-Aug-20 14:51 46.732403 -120.556192 249 2835ft 168kts
28-Aug-20 14:52 46.755176 -120.604228 274 3029ft 154kts
28-Aug-20 14:53 46.738569 -120.587266 115 2418ft 98kts
28-Aug-20 14:54 46.750950 -120.595373 284 1578ft 99kts
28-Aug-20 14:55 46.765526 -120.622772 349 2269ft 92kts
28-Aug-20 14:56 46.792567 -120.636007 318 2888ft 102kts
28-Aug-20 14:57 46.793145 -120.653162 82 3245ft 107kts
28-Aug-20 14:58 46.821380 -120.667091 322 3433ft 128kts
28-Aug-20 14:59 46.846189 -120.706659 304 3653ft 144kts
28-Aug-20 15:00 46.869069 -120.758341 315 3693ft 165kts
28-Aug-20 15:01 46.867060 -120.782535 138 3686ft 172kts
28-Aug-20 15:02 46.834498 -120.733670 126 4030ft 182kts
28-Aug-20 15:03 46.803555 -120.671906 132 3435ft 189kts
28-Aug-20 15:04 46.792755 -120.639770 323 2357ft 168kts
28-Aug-20 15:05 46.788003 -120.634454 327 2431ft 146kts
28-Aug-20 15:06 46.808628 -120.675008 316 2823ft 124kts
28-Aug-20 15:07 46.833428 -120.710155 307 2980ft 127kts
28-Aug-20 15:08 46.858975 -120.752209 320 2731ft 135kts
28-Aug-20 15:09 46.864216 -120.785937 188 3164ft 111kts
28-Aug-20 15:10 46.861098 -120.756981 324 3144ft 91kts
28-Aug-20 15:11 46.854213 -120.787669 245 2813ft 77kts
28-Aug-20 15:12 46.864301 -120.808749 17 3740ft 117kts
28-Aug-20 15:13 46.899290 -120.804569 310 4125ft 134kts
28-Aug-20 15:14 46.901628 -120.856897 258 4701ft 139kts
28-Aug-20 15:15 46.889760 -120.907354 255 5214ft 147kts
28-Aug-20 15:16 46.877455 -120.962918 218 4504ft 149kts
28-Aug-20 15:17 46.870015 -120.965121 316 3614ft 140kts
28-Aug-20 15:18 46.896205 -121.002988 315 3654ft 132kts
28-Aug-20 15:19 46.921255 -121.039860 321 3937ft 123kts
28-Aug-20 15:20 46.951525 -121.068697 331 4109ft 133kts
28-Aug-20 15:21 46.985784 -121.092885 317 4709ft 138kts
28-Aug-20 15:22 46.982619 -121.147536 259 5326ft 141kts
28-Aug-20 15:23 46.974626 -121.203248 259 6014ft 140kts
28-Aug-20 15:24 46.965985 -121.258830 248 6793ft 148kts
28-Aug-20 15:25 46.944326 -121.311225 242 7326ft 155kts
28-Aug-20 15:26 46.925733 -121.366731 235 7867ft 157kts
28-Aug-20 15:27 46.902685 -121.419339 242 8360ft 160kts
28-Aug-20 15:28 46.901196 -121.471195 348 8658ft 149kts
28-Aug-20 15:29 46.945725 -121.470419 346 7024ft 161kts
28-Aug-20 15:30 46.983514 -121.505958 321 4828ft 170kts
28-Aug-20 15:31 46.993553 -121.525413 40 4079ft 84kts
28-Aug-20 15:32 47.018508 -121.535654 349 2657ft 101kts
28-Aug-20 15:33 47.046609 -121.571998 339 3234ft 158kts
28-Aug-20 15:34 47.089435 -121.594012 338 3752ft 168kts
28-Aug-20 15:35 47.134098 -121.621310 325 3866ft 176kts
28-Aug-20 15:36 47.158469 -121.682266 295 4225ft 165kts
28-Aug-20 15:37 47.173099 -121.748875 276 4214ft 184kts
28-Aug-20 15:38 47.169422 -121.825900 255 3673ft 190kts
28-Aug-20 15:39 47.155915 -121.901377 256 2727ft 186kts
28-Aug-20 15:40 47.169592 -121.961144 322 2808ft 150kts
28-Aug-20 15:41 47.196089 -121.996788 269 1641ft 181kts
28-Aug-20 15:42 47.186122 -122.030624 89 1372ft 109kts
28-Aug-20 15:43 47.191316 -121.997213 7 1401ft 77kts
28-Aug-20 15:44 47.196088 -122.019325 266 738ft 53kts
28-Aug-20 15:45 47.196153 -122.021936 90 733ft 5kts
28-Aug-20 15:46 47.196328 -122.018644 85 739ft 7kts
28-Aug-20 15:47 47.196224 -122.017305 84 742ft 10kts
28-Aug-20 15:48 47.196014 -122.021563 274 748ft 73kts
28-Aug-20 15:49 47.211007 -122.055260 341 1575ft 125kts
28-Aug-20 15:50 47.249424 -122.065277 347 1306ft 163kts
28-Aug-20 15:51 47.264538 -122.077129 187 1354ft 91kts
28-Aug-20 15:52 47.269168 -122.067885 358 595ft 78kts
28-Aug-20 15:53 47.293428 -122.080802 328 1325ft 120kts
28-Aug-20 15:54 47.315842 -122.098995 351 1170ft 89kts
28-Aug-20 15:55 47.337235 -122.103591 349 475ft 43kts
28-Aug-20 15:56 47.340315 -122.103789 250 475ft 0kts
28-Aug-20 15:57 47.340315 -122.103788 250 475ft 0kts
28-Aug-20 15:58 47.340315 -122.103788 250 475ft 0kts
28-Aug-20 16:00 47.340315 -122.103788 250 475ft 0kts
28-Aug-20 16:01 47.340315 -122.103788 250 475ft 0kts
28-Aug-20 16:02 47.340315 -122.103788 250 475ft 0kts
28-Aug-20 16:03 47.340315 -122.103788 250 475ft 0kts
28-Aug-20 16:04 47.340315 -122.103788 250 475ft 0kts
28-Aug-20 16:05 47.340315 -122.103788 250 475ft 0kts
28-Aug-20 16:06 47.340315 -122.103788 250 475ft 0kts
28-Aug-20 16:07 47.340315 -122.103788 250 475ft 0kts
28-Aug-20 16:08 47.340315 -122.103788 250 475ft 0kts
28-Aug-20 16:09 47.340315 -122.103788 250 475ft 0kts
28-Aug-20 16:10 47.340315 -122.103788 250 475ft 0kts
28-Aug-20 16:11 47.340315 -122.103788 250 475ft 0kts

Navigation Log

Ident Type
Flight plan parsing failed, navigation log unavailable